Time;durP1;ratioP1;P1;durP2;ratioP2;P2;SDS_P1;SDS_P2;PMS_P1;PMS_P2;Temp;Humidity;BMP_temperature;BMP_pressure;BME280_temperature;BME280_humidity;BME280_pressure;Samples;Min_cycle;Max_cycle;Signal;HPM_P1;HPM_P2
2023/12/11 00:01:07;;;;;;;;;;;;;;;8.70;100.00;99892.75;5009357;28;19943;-72
2023/12/11 00:03:32;;;;;;;;;;;;;;;8.74;100.00;99885.28;5012336;28;19928;-72
2023/12/11 00:05:57;;;;;;;;;;;;;;;8.73;100.00;99885.44;5013402;28;19928;-72
2023/12/11 00:08:23;;;;;;;;;;;;;;;8.81;100.00;99872.25;5023917;28;19929;-73
2023/12/11 00:10:48;;;;;;;;;;;;;;;8.80;100.00;99871.38;5017069;28;19920;-73
2023/12/11 00:13:13;;;;;;;;;;;;;;;8.75;100.00;99875.44;5017785;28;20047;-72
2023/12/11 00:15:39;;;;;;;;;;;;;;;8.72;100.00;99879.25;5018638;28;19920;-73
2023/12/11 00:18:04;;;;;;;;;;;;;;;8.66;100.00;99877.91;5018023;28;20219;-72
2023/12/11 00:20:29;;;;;;;;;;;;;;;8.64;100.00;99879.03;5029915;28;19931;-73
2023/12/11 00:22:54;;;;;;;;;;;;;;;8.61;100.00;99880.13;5014231;28;20358;-72
2023/12/11 00:25:19;;;;;;;;;;;;;;;8.57;100.00;99872.50;5028951;28;20544;-74
2023/12/11 00:27:45;;;;;;;;;;;;;;;8.51;100.00;99871.22;5005116;28;19921;-73
2023/12/11 00:30:10;;;;;;;;;;;;;;;8.54;100.00;99871.78;5015471;28;19953;-73
2023/12/11 00:32:35;;;;;;;;;;;;;;;8.44;100.00;99880.69;5030964;28;20335;-72
2023/12/11 00:35:01;;;;;;;;;;;;;;;8.43;100.00;99869.16;5034568;28;19949;-73
2023/12/11 00:37:26;;;;;;;;;;;;;;;8.33;100.00;99871.75;5022125;28;20019;-72
2023/12/11 00:39:52;;;;;;;;;;;;;;;8.38;100.00;99869.53;5017272;28;20581;-72
2023/12/11 00:42:17;;;;;;;;;;;;;;;8.37;100.00;99867.81;5016838;28;20554;-73
2023/12/11 00:44:42;;;;;;;;;;;;;;;8.29;100.00;99869.44;5029211;28;20002;-71
2023/12/11 00:47:07;;;;;;;;;;;;;;;8.21;100.00;99872.78;5015830;28;20378;-72
2023/12/11 00:49:33;;;;;;;;;;;;;;;8.26;100.00;99859.88;5029608;28;20475;-72
2023/12/11 00:51:58;;;;;;;;;;;;;;;8.33;100.00;99861.06;5013269;28;20422;-72
2023/12/11 00:54:23;;;;;;;;;;;;;;;8.30;100.00;99864.00;5016346;28;19925;-71
2023/12/11 00:56:48;;;;;;;;;;;;;;;8.42;100.00;99864.78;5030673;28;19921;-72
2023/12/11 00:59:13;;;;;;;;;;;;;;;8.40;100.00;99856.88;5017656;28;19925;-71
2023/12/11 01:01:39;;;;;;;;;;;;;;;8.34;100.00;99861.91;5030104;28;19985;-71
2023/12/11 01:04:04;;;;;;;;;;;;;;;8.22;100.00;99864.59;5016798;28;19929;-72
2023/12/11 01:06:30;;;;;;;;;;;;;;;8.23;100.00;99866.31;5001858;28;19968;-71
2023/12/11 01:08:55;;;;;;;;;;;;;;;8.29;100.00;99864.09;5020231;28;19917;-71
2023/12/11 01:11:20;;;;;;;;;;;;;;;8.28;100.00;99852.56;5018047;28;19921;-71
2023/12/11 01:13:45;;;;;;;;;;;;;;;8.18;100.00;99865.00;5018054;28;19923;-72
2023/12/11 01:16:11;;;;;;;;;;;;;;;8.14;100.00;99858.22;5018816;28;19928;-72
2023/12/11 01:18:36;;;;;;;;;;;;;;;8.23;100.00;99860.13;5029755;28;19971;-71
2023/12/11 01:21:01;;;;;;;;;;;;;;;8.26;100.00;99852.69;5014922;28;19928;-73
2023/12/11 01:23:26;;;;;;;;;;;;;;;8.26;100.00;99854.53;5019711;28;20255;-72
2023/12/11 01:25:52;;;;;;;;;;;;;;;8.21;100.00;99848.72;5015736;28;19925;-70
2023/12/11 01:28:17;;;;;;;;;;;;;;;8.18;100.00;99841.81;5053903;28;20011;-72
2023/12/11 01:30:42;;;;;;;;;;;;;;;8.15;100.00;99833.16;5027919;28;19971;-72
2023/12/11 01:33:07;;;;;;;;;;;;;;;8.16;100.00;99829.53;5031855;28;20014;-72
2023/12/11 01:35:37;;;;;;;;;;;;;;;8.15;100.00;99834.03;5013821;28;19928;-72
2023/12/11 01:38:02;;;;;;;;;;;;;;;8.15;100.00;99830.50;5012306;28;20609;-71
2023/12/11 01:40:27;;;;;;;;;;;;;;;8.32;100.00;99810.34;5014812;28;20047;-71
2023/12/11 01:42:53;;;;;;;;;;;;;;;8.37;100.00;99818.84;5029378;28;20283;-71
2023/12/11 01:45:18;;;;;;;;;;;;;;;8.31;100.00;99806.00;5017678;28;20335;-71
2023/12/11 01:47:43;;;;;;;;;;;;;;;8.46;100.00;99810.03;5004632;28;20107;-72
2023/12/11 01:50:08;;;;;;;;;;;;;;;8.45;100.00;99816.38;5013515;28;19968;-72
2023/12/11 01:52:34;;;;;;;;;;;;;;;8.49;100.00;99803.59;5031206;28;20279;-71
2023/12/11 01:54:59;;;;;;;;;;;;;;;8.50;100.00;99803.47;5026618;28;19963;-72
2023/12/11 01:57:24;;;;;;;;;;;;;;;8.68;100.00;99805.56;5019439;28;20035;-71
2023/12/11 01:59:50;;;;;;;;;;;;;;;8.71;100.00;99799.94;5017809;28;20271;-72
2023/12/11 02:02:16;;;;;;;;;;;;;;;8.77;100.00;99795.88;5006661;28;20327;-71
2023/12/11 02:04:41;;;;;;;;;;;;;;;8.80;100.00;99796.44;5032860;28;20275;-72
2023/12/11 02:07:06;;;;;;;;;;;;;;;8.73;100.00;99789.94;5014605;28;20027;-72
2023/12/11 02:09:32;;;;;;;;;;;;;;;8.87;100.00;99785.22;5020578;28;20279;-72
2023/12/11 02:11:57;;;;;;;;;;;;;;;8.97;100.00;99786.94;5018307;28;20335;-72
2023/12/11 02:14:22;;;;;;;;;;;;;;;8.95;100.00;99796.09;5021429;28;20012;-73
2023/12/11 02:16:48;;;;;;;;;;;;;;;8.90;100.00;99775.06;5016521;28;20304;-73
2023/12/11 02:19:13;;;;;;;;;;;;;;;8.93;100.00;99780.16;5022468;28;20390;-73
2023/12/11 02:21:38;;;;;;;;;;;;;;;8.86;100.00;99771.00;5003070;28;19996;-73
2023/12/11 02:24:06;;;;;;;;;;;;;;;8.82;100.00;99767.72;5017887;28;19920;-72
2023/12/11 02:26:31;;;;;;;;;;;;;;;8.77;100.00;99777.97;5032522;28;19921;-73
2023/12/11 02:28:56;;;;;;;;;;;;;;;8.68;100.00;99760.88;5029863;28;19925;-72
2023/12/11 02:31:21;;;;;;;;;;;;;;;8.65;100.00;99730.88;5015211;28;19928;-72
2023/12/11 02:33:46;;;;;;;;;;;;;;;8.68;100.00;99738.66;5019169;28;19932;-72
2023/12/11 02:36:12;;;;;;;;;;;;;;;8.52;100.00;99750.69;5018050;28;19936;-72
2023/12/11 02:38:37;;;;;;;;;;;;;;;8.63;100.00;99738.19;5016610;28;19964;-72
2023/12/11 02:41:02;;;;;;;;;;;;;;;8.61;100.00;99730.28;5012867;28;19959;-72
2023/12/11 02:43:28;;;;;;;;;;;;;;;8.63;100.00;99720.31;5019427;28;19924;-72
2023/12/11 02:45:53;;;;;;;;;;;;;;;8.65;100.00;99730.88;5018278;28;19928;-72
2023/12/11 02:48:18;;;;;;;;;;;;;;;8.74;100.00;99729.22;5030595;28;19960;-73
2023/12/11 02:50:44;;;;;;;;;;;;;;;8.74;100.00;99734.59;5016988;28;20012;-74
2023/12/11 02:53:09;;;;;;;;;;;;;;;8.75;100.00;99726.41;5016632;28;19978;-72
2023/12/11 02:55:34;;;;;;;;;;;;;;;8.84;100.00;99720.25;5015246;28;19929;-72
2023/12/11 02:58:00;;;;;;;;;;;;;;;9.08;100.00;99720.88;5017679;28;20358;-72
2023/12/11 03:00:26;;;;;;;;;;;;;;;9.12;100.00;99733.03;5013910;28;19962;-73
2023/12/11 03:02:51;;;;;;;;;;;;;;;9.14;100.00;99709.59;5017357;28;19921;-73
2023/12/11 03:05:16;;;;;;;;;;;;;;;9.20;100.00;99725.13;5028697;28;20028;-72
2023/12/11 03:07:41;;;;;;;;;;;;;;;9.06;100.00;99706.78;5014333;28;19943;-73
2023/12/11 03:10:07;;;;;;;;;;;;;;;8.99;100.00;99718.03;5034539;28;20001;-73
2023/12/11 03:12:32;;;;;;;;;;;;;;;8.94;100.00;99708.72;5012655;28;20020;-73
2023/12/11 03:14:57;;;;;;;;;;;;;;;8.82;100.00;99705.31;5013424;28;20371;-72
2023/12/11 03:17:22;;;;;;;;;;;;;;;8.89;100.00;99698.41;5014046;28;19925;-73
2023/12/11 03:19:48;;;;;;;;;;;;;;;8.74;100.00;99687.25;5027211;28;19976;-74
2023/12/11 03:22:13;;;;;;;;;;;;;;;8.66;100.00;99674.53;5027105;28;20362;-73
2023/12/11 03:24:38;;;;;;;;;;;;;;;8.61;100.00;99674.09;5026881;28;19925;-74
2023/12/11 03:27:03;;;;;;;;;;;;;;;8.61;100.00;99663.41;5014187;28;19929;-72
2023/12/11 03:29:29;;;;;;;;;;;;;;;8.61;100.00;99681.31;5030181;28;19973;-72
2023/12/11 03:31:54;;;;;;;;;;;;;;;8.55;100.00;99661.28;5013491;28;19932;-74
2023/12/11 03:34:19;;;;;;;;;;;;;;;8.60;100.00;99669.75;5015301;28;20422;-75
2023/12/11 03:36:44;;;;;;;;;;;;;;;8.51;100.00;99666.03;5029661;28;19916;-72
2023/12/11 03:39:10;;;;;;;;;;;;;;;8.55;100.00;99661.28;5015646;28;20498;-73
2023/12/11 03:41:35;;;;;;;;;;;;;;;8.51;100.00;99674.06;5017456;28;20346;-72
2023/12/11 03:44:00;;;;;;;;;;;;;;;8.56;100.00;99662.97;5021815;28;20380;-75
2023/12/11 03:46:25;;;;;;;;;;;;;;;8.59;100.00;99676.09;5035862;28;19975;-77
2023/12/11 03:48:50;;;;;;;;;;;;;;;8.53;100.00;99672.13;5018263;28;20020;-73
2023/12/11 03:51:16;;;;;;;;;;;;;;;8.50;100.00;99668.88;5022579;28;20390;-74
2023/12/11 03:53:41;;;;;;;;;;;;;;;8.39;100.00;99675.13;5022379;28;20379;-73
2023/12/11 03:56:06;;;;;;;;;;;;;;;8.38;100.00;99658.22;5031784;28;19916;-74
2023/12/11 03:58:31;;;;;;;;;;;;;;;8.35;100.00;99649.63;5020744;28;19923;-74
2023/12/11 04:00:57;;;;;;;;;;;;;;;8.32;100.00;99642.72;5020952;28;20377;-75
2023/12/11 04:03:22;;;;;;;;;;;;;;;8.38;100.00;99639.50;5033363;28;20300;-73
2023/12/11 04:05:47;;;;;;;;;;;;;;;8.43;100.00;99648.94;5020215;28;20473;-72
2023/12/11 04:08:12;;;;;;;;;;;;;;;8.37;100.00;99643.16;5014737;28;19925;-74
2023/12/11 04:10:38;;;;;;;;;;;;;;;8.44;100.00;99639.94;5037823;28;20059;-74
2023/12/11 04:13:03;;;;;;;;;;;;;;;8.51;100.00;99651.84;5016179;28;19974;-73
2023/12/11 04:15:29;;;;;;;;;;;;;;;8.50;100.00;99645.63;5032651;28;19921;-75
2023/12/11 04:17:54;;;;;;;;;;;;;;;8.64;100.00;99654.28;5017119;28;19925;-73
2023/12/11 04:20:19;;;;;;;;;;;;;;;8.68;100.00;99655.69;5017212;28;19921;-75
2023/12/11 04:22:44;;;;;;;;;;;;;;;8.70;100.00;99667.13;5018802;28;19917;-76
2023/12/11 04:25:09;;;;;;;;;;;;;;;8.75;100.00;99666.69;5031559;28;20043;-75
2023/12/11 04:27:35;;;;;;;;;;;;;;;8.75;100.00;99662.19;5016624;28;19921;-77
2023/12/11 04:30:00;;;;;;;;;;;;;;;8.80;100.00;99651.91;5035662;28;19928;-76
2023/12/11 04:32:25;;;;;;;;;;;;;;;8.79;100.00;99654.75;5032158;28;19923;-75
2023/12/11 04:34:50;;;;;;;;;;;;;;;8.87;100.00;99659.41;5021043;28;20398;-77
2023/12/11 04:37:16;;;;;;;;;;;;;;;8.85;100.00;99649.69;5007038;28;19925;-73
2023/12/11 04:39:41;;;;;;;;;;;;;;;8.78;100.00;99656.56;5020945;28;19994;-74
2023/12/11 04:42:06;;;;;;;;;;;;;;;8.72;100.00;99646.41;5027565;28;20077;-75
2023/12/11 04:44:31;;;;;;;;;;;;;;;8.77;100.00;99662.88;5018308;28;20381;-75
2023/12/11 04:46:56;;;;;;;;;;;;;;;8.83;100.00;99638.25;5013128;28;20338;-75
2023/12/11 04:49:22;;;;;;;;;;;;;;;8.82;100.00;99660.66;5016769;28;20674;-76
2023/12/11 04:51:47;;;;;;;;;;;;;;;8.87;100.00;99659.41;5015150;28;20395;-76
2023/12/11 04:54:12;;;;;;;;;;;;;;;8.93;100.00;99645.47;5014436;28;20383;-74
2023/12/11 04:56:37;;;;;;;;;;;;;;;8.95;100.00;99649.69;5034910;28;19921;-75
2023/12/11 04:59:03;;;;;;;;;;;;;;;8.90;100.00;99646.56;5020594;28;20027;-76
2023/12/11 05:01:28;;;;;;;;;;;;;;;8.86;100.00;99645.19;5014342;28;19979;-74
2023/12/11 05:03:53;;;;;;;;;;;;;;;8.84;100.00;99639.94;5019012;28;20012;-77
2023/12/11 05:06:18;;;;;;;;;;;;;;;8.88;100.00;99645.03;5016679;28;19917;-77
2023/12/11 05:08:44;;;;;;;;;;;;;;;8.88;100.00;99650.38;5016767;28;19925;-73
2023/12/11 05:11:09;;;;;;;;;;;;;;;8.96;100.00;99637.16;5014448;28;19929;-74
2023/12/11 05:13:34;;;;;;;;;;;;;;;8.96;100.00;99637.16;5020625;28;19929;-75
2023/12/11 05:16:00;;;;;;;;;;;;;;;8.91;100.00;99644.75;5014562;28;19925;-73
2023/12/11 05:18:25;;;;;;;;;;;;;;;8.92;100.00;99660.66;5013386;28;19931;-74
2023/12/11 05:20:50;;;;;;;;;;;;;;;8.95;100.00;99648.84;5016098;28;20367;-74
2023/12/11 05:23:16;;;;;;;;;;;;;;;8.85;100.00;99635.47;5020439;28;20009;-75
2023/12/11 05:25:41;;;;;;;;;;;;;;;8.89;100.00;99642.22;5017008;28;20405;-73
2023/12/11 05:28:06;;;;;;;;;;;;;;;8.78;100.00;99640.50;5018881;28;20346;-73
2023/12/11 05:30:31;;;;;;;;;;;;;;;8.74;100.00;99636.41;5016555;28;20782;-73
2023/12/11 05:32:58;;;;;;;;;;;;;;;8.82;100.00;99636.56;5016893;28;20396;-71
2023/12/11 05:35:23;;;;;;;;;;;;;;;8.74;100.00;99638.25;5016744;28;19925;-72
2023/12/11 05:37:49;;;;;;;;;;;;;;;8.79;100.00;99636.00;5017332;28;19966;-72
2023/12/11 05:40:14;;;;;;;;;;;;;;;8.75;100.00;99637.25;5015379;28;20041;-72
2023/12/11 05:42:39;;;;;;;;;;;;;;;8.77;100.00;99635.28;5019888;28;19948;-76
2023/12/11 05:45:05;;;;;;;;;;;;;;;8.80;100.00;99635.84;5011737;28;19925;-75
2023/12/11 05:47:30;;;;;;;;;;;;;;;8.78;100.00;99635.16;5018527;28;20369;-72
2023/12/11 05:49:55;;;;;;;;;;;;;;;8.72;100.00;99627.69;5030342;28;20466;-73
2023/12/11 05:52:20;;;;;;;;;;;;;;;8.65;100.00;99621.19;5016692;28;19931;-75
2023/12/11 05:54:45;;;;;;;;;;;;;;;8.66;100.00;99626.38;5017145;28;20305;-72
2023/12/11 05:57:11;;;;;;;;;;;;;;;8.59;100.00;99625.25;5017945;28;19956;-72
2023/12/11 05:59:36;;;;;;;;;;;;;;;8.59;100.00;99605.66;5011572;28;19955;-75
2023/12/11 06:02:01;;;;;;;;;;;;;;;8.49;100.00;99593.09;5015967;28;19925;-74
2023/12/11 06:04:26;;;;;;;;;;;;;;;8.50;100.00;99588.63;5013801;28;19971;-72
2023/12/11 06:06:52;;;;;;;;;;;;;;;8.49;100.00;99590.44;5012892;28;20375;-73
2023/12/11 06:09:17;;;;;;;;;;;;;;;8.54;100.00;99604.25;5018406;28;19925;-74
2023/12/11 06:11:42;;;;;;;;;;;;;;;8.60;100.00;99602.00;5030002;28;19944;-74
2023/12/11 06:14:07;;;;;;;;;;;;;;;8.66;100.00;99606.81;5026409;28;21075;-72
2023/12/11 06:16:32;;;;;;;;;;;;;;;8.71;100.00;99609.94;5024154;28;19928;-74
2023/12/11 06:18:58;;;;;;;;;;;;;;;8.70;100.00;99594.88;5016961;28;19921;-75
2023/12/11 06:21:24;;;;;;;;;;;;;;;8.75;100.00;99621.19;5019453;28;19925;-75
2023/12/11 06:23:49;;;;;;;;;;;;;;;8.78;100.00;99612.91;5011615;28;19939;-74
2023/12/11 06:26:44;;;;;;;;;;;;;;;8.78;100.00;99613.72;5018276;28;20393;-73
2023/12/11 06:29:09;;;;;;;;;;;;;;;8.92;100.00;99620.50;5012972;28;20067;-75
2023/12/11 06:31:35;;;;;;;;;;;;;;;8.78;100.00;99615.56;5014059;28;20003;-72
2023/12/11 06:34:00;;;;;;;;;;;;;;;8.70;100.00;99625.13;5029341;28;19921;-72
2023/12/11 06:36:28;;;;;;;;;;;;;;;8.75;100.00;99616.69;5032442;28;20012;-73
2023/12/11 06:38:53;;;;;;;;;;;;;;;8.70;100.00;99610.91;4996994;28;19922;-76
2023/12/11 06:41:18;;;;;;;;;;;;;;;8.57;100.00;99615.66;5017582;28;19962;-75
2023/12/11 06:43:48;;;;;;;;;;;;;;;8.50;100.00;99620.72;5016312;28;20055;-74
2023/12/11 06:46:13;;;;;;;;;;;;;;;8.44;100.00;99611.38;5033411;28;20056;-75
2023/12/11 06:48:38;;;;;;;;;;;;;;;8.37;100.00;99604.88;4997384;28;20419;-76
2023/12/11 06:51:03;;;;;;;;;;;;;;;8.34;100.00;99605.97;5016963;28;19921;-76
2023/12/11 06:53:29;;;;;;;;;;;;;;;8.32;100.00;99609.78;5045844;28;19921;-75
2023/12/11 06:55:55;;;;;;;;;;;;;;;8.25;100.00;99609.47;5018353;28;20320;-75
2023/12/11 06:58:20;;;;;;;;;;;;;;;8.16;100.00;99604.94;5014844;28;20016;-78
2023/12/11 07:00:45;;;;;;;;;;;;;;;8.17;100.00;99590.59;5012941;28;20394;-74
2023/12/11 07:03:10;;;;;;;;;;;;;;;8.20;100.00;99588.50;4999956;28;20370;-76
2023/12/11 07:05:36;;;;;;;;;;;;;;;8.14;100.00;99585.50;5016245;28;19924;-78
2023/12/11 07:08:01;;;;;;;;;;;;;;;8.08;100.00;99576.19;5024581;28;20445;-73
2023/12/11 07:10:26;;;;;;;;;;;;;;;8.10;100.00;99583.09;5017076;28;20361;-78
2023/12/11 07:12:52;;;;;;;;;;;;;;;8.09;100.00;99584.06;5011401;28;19921;-77
2023/12/11 07:15:19;;;;;;;;;;;;;;;8.09;100.00;99584.06;5012580;28;19928;-76
2023/12/11 07:17:44;;;;;;;;;;;;;;;8.08;100.00;99597.59;5028498;28;20774;-75
2023/12/11 07:20:11;;;;;;;;;;;;;;;8.06;100.00;99586.19;5031435;28;19960;-75
2023/12/11 07:22:36;;;;;;;;;;;;;;;8.11;100.00;99581.28;5026796;28;19983;-73
2023/12/11 07:25:01;;;;;;;;;;;;;;;8.06;100.00;99587.03;5020218;28;19933;-76
2023/12/11 07:27:28;;;;;;;;;;;;;;;8.11;100.00;99583.94;5009054;28;21303;-74
2023/12/11 07:29:54;;;;;;;;;;;;;;;8.09;100.00;99593.94;5010752;28;19921;-76
2023/12/11 07:32:19;;;;;;;;;;;;;;;8.12;100.00;99596.34;5014622;28;20438;-77
2023/12/11 07:34:44;;;;;;;;;;;;;;;8.03;100.00;99581.97;5014826;28;20012;-75
2023/12/11 07:37:09;;;;;;;;;;;;;;;8.19;100.00;99610.00;5028822;28;20673;-75
2023/12/11 07:39:34;;;;;;;;;;;;;;;8.30;100.00;99612.59;5029438;28;20490;-72
2023/12/11 07:42:00;;;;;;;;;;;;;;;8.39;100.00;99625.16;5031428;28;19921;-75
2023/12/11 07:44:25;;;;;;;;;;;;;;;8.38;100.00;99638.66;5014908;28;19961;-76
2023/12/11 07:46:50;;;;;;;;;;;;;;;8.45;100.00;99655.00;5014307;28;19928;-72
2023/12/11 07:49:15;;;;;;;;;;;;;;;8.56;100.00;99657.63;5016489;28;20031;-74
2023/12/11 07:51:41;;;;;;;;;;;;;;;8.51;100.00;99666.03;5013185;28;20012;-74
2023/12/11 07:54:06;;;;;;;;;;;;;;;8.67;100.00;99667.38;5012190;28;19928;-74
2023/12/11 07:56:32;;;;;;;;;;;;;;;8.62;100.00;99688.34;5013376;28;19944;-74
2023/12/11 07:58:57;;;;;;;;;;;;;;;8.61;100.00;99682.13;5013392;28;20339;-74
2023/12/11 08:01:22;;;;;;;;;;;;;;;8.64;100.00;99691.72;5018215;28;19990;-74
2023/12/11 08:03:48;;;;;;;;;;;;;;;8.62;100.00;99704.41;5017466;28;20279;-75
2023/12/11 08:06:13;;;;;;;;;;;;;;;8.58;100.00;99709.19;5017636;28;20368;-73
2023/12/11 08:08:45;;;;;;;;;;;;;;;8.47;100.00;99720.78;5014995;28;19928;-75
2023/12/11 08:11:13;;;;;;;;;;;;;;;8.30;100.00;99708.00;5019621;28;20334;-75
2023/12/11 08:13:39;;;;;;;;;;;;;;;8.28;100.00;99713.50;5017096;28;19928;-74
2023/12/11 08:16:04;;;;;;;;;;;;;;;8.25;100.00;99703.06;5016491;28;20327;-75
2023/12/11 08:18:29;;;;;;;;;;;;;;;8.22;100.00;99714.88;5017104;28;19967;-74
2023/12/11 08:20:55;;;;;;;;;;;;;;;8.15;100.00;99696.81;5015698;28;20008;-75
2023/12/11 08:23:21;;;;;;;;;;;;;;;8.19;100.00;99709.81;5026064;28;19921;-75
2023/12/11 08:25:47;;;;;;;;;;;;;;;8.29;100.00;99733.06;4995924;28;19940;-75
2023/12/11 08:28:12;;;;;;;;;;;;;;;8.15;100.00;99732.44;5009502;28;19925;-75
2023/12/11 08:30:37;;;;;;;;;;;;;;;8.15;100.00;99724.41;5031790;28;19924;-73
2023/12/11 08:33:02;;;;;;;;;;;;;;;8.17;100.00;99724.28;5023958;28;19972;-74
2023/12/11 08:35:27;;;;;;;;;;;;;;;8.17;100.00;99745.66;5020575;28;19960;-74
2023/12/11 08:37:53;;;;;;;;;;;;;;;8.14;100.00;99764.63;5026435;28;20049;-74
2023/12/11 08:40:20;;;;;;;;;;;;;;;8.23;100.00;99762.00;5025545;28;19987;-75
2023/12/11 08:42:46;;;;;;;;;;;;;;;8.36;100.00;99775.19;5020275;28;19941;-73
2023/12/11 08:45:11;;;;;;;;;;;;;;;8.32;100.00;99778.28;5021395;28;19924;-74
2023/12/11 08:47:36;;;;;;;;;;;;;;;8.34;100.00;99785.16;5020537;28;19925;-74
2023/12/11 08:50:03;;;;;;;;;;;;;;;8.35;100.00;99788.72;5024207;28;19927;-75
2023/12/11 08:52:28;;;;;;;;;;;;;;;8.39;100.00;99784.78;5032562;28;19925;-74
2023/12/11 08:54:53;;;;;;;;;;;;;;;8.43;100.00;99794.25;5014270;28;19928;-74
2023/12/11 08:57:18;;;;;;;;;;;;;;;8.51;100.00;99801.66;5020210;28;20036;-73
2023/12/11 08:59:44;;;;;;;;;;;;;;;8.56;100.00;99807.47;5020653;28;19927;-72
2023/12/11 09:02:09;;;;;;;;;;;;;;;8.54;100.00;99822.78;5021192;28;20607;-74
2023/12/11 09:04:35;;;;;;;;;;;;;;;8.61;100.00;99821.25;5022076;28;20373;-74
2023/12/11 09:07:00;;;;;;;;;;;;;;;8.65;100.00;99821.88;5032497;28;19926;-72
2023/12/11 09:09:25;;;;;;;;;;;;;;;8.69;100.00;99856.25;5021906;28;20821;-73
2023/12/11 09:11:51;;;;;;;;;;;;;;;8.72;100.00;99843.59;5020625;28;19979;-74
2023/12/11 09:14:16;;;;;;;;;;;;;;;8.73;100.00;99840.81;5020777;28;19925;-73
2023/12/11 09:16:42;;;;;;;;;;;;;;;8.84;100.00;99846.06;5023551;28;19924;-73
2023/12/11 09:19:08;;;;;;;;;;;;;;;8.81;100.00;99859.69;5022240;28;19980;-73
2023/12/11 09:21:33;;;;;;;;;;;;;;;8.81;100.00;99869.56;5038535;28;20434;-74
2023/12/11 09:23:58;;;;;;;;;;;;;;;8.80;100.00;99878.59;5021342;28;19961;-72
2023/12/11 09:26:24;;;;;;;;;;;;;;;8.81;100.00;99886.47;5021481;28;20035;-73
2023/12/11 09:28:49;;;;;;;;;;;;;;;8.86;100.00;99891.44;5023949;28;19927;-73
2023/12/11 09:31:14;;;;;;;;;;;;;;;8.72;100.00;99895.31;5023851;28;19916;-73
2023/12/11 09:33:40;;;;;;;;;;;;;;;8.71;100.00;99904.31;5023461;28;20047;-73
2023/12/11 09:36:05;;;;;;;;;;;;;;;8.62;100.00;99918.47;5038788;28;19917;-74
2023/12/11 09:38:30;;;;;;;;;;;;;;;8.63;100.00;99912.13;5023892;28;19917;-74
2023/12/11 09:40:56;;;;;;;;;;;;;;;8.49;100.00;99935.53;5022390;28;19921;-73
2023/12/11 09:43:21;;;;;;;;;;;;;;;8.38;100.00;99957.78;5035991;28;19921;-74
2023/12/11 09:45:47;;;;;;;;;;;;;;;8.31;100.00;99948.59;5038144;28;19929;-75
2023/12/11 09:48:12;;;;;;;;;;;;;;;8.19;100.00;99953.13;5026556;28;19968;-75
2023/12/11 09:50:38;;;;;;;;;;;;;;;8.25;100.00;99941.06;5025644;28;19921;-76
2023/12/11 09:53:03;;;;;;;;;;;;;;;8.24;100.00;99942.06;5004793;28;19928;-76
2023/12/11 09:55:28;;;;;;;;;;;;;;;8.14;100.00;99955.34;5039829;28;19931;-75
2023/12/11 09:57:53;;;;;;;;;;;;;;;8.26;100.00;99967.69;5021152;28;19963;-74
2023/12/11 10:00:19;;;;;;;;;;;;;;;8.43;100.00;99965.47;5036930;28;19921;-74
2023/12/11 10:02:44;;;;;;;;;;;;;;;8.36;100.00;99974.97;5022162;28;19920;-73
2023/12/11 10:05:10;;;;;;;;;;;;;;;8.38;100.00;99976.50;5035143;28;19929;-73
2023/12/11 10:07:36;;;;;;;;;;;;;;;8.43;100.00;99981.50;5022067;28;19932;-73
2023/12/11 10:10:20;;;;;;;;;;;;;;;8.53;100.00;99984.28;5021013;28;19925;-73
2023/12/11 10:12:45;;;;;;;;;;;;;;;8.51;100.00;99983.56;5023191;28;19925;-72
2023/12/11 10:15:10;;;;;;;;;;;;;;;8.64;100.00;100002.13;5019209;28;20213;-73
2023/12/11 10:17:35;;;;;;;;;;;;;;;8.67;100.00;100001.88;5036598;28;20464;-72
2023/12/11 10:20:01;;;;;;;;;;;;;;;8.63;100.00;100003.09;5035998;28;20469;-73
2023/12/11 10:22:27;;;;;;;;;;;;;;;8.69;100.00;100013.31;5036182;28;19937;-73
2023/12/11 10:24:52;;;;;;;;;;;;;;;8.90;100.00;100020.50;5017620;28;19979;-72
2023/12/11 10:27:21;;;;;;;;;;;;;;;9.07;100.00;100033.31;5021114;28;19925;-73
2023/12/11 10:29:46;;;;;;;;;;;;;;;9.26;100.00;100034.47;5017495;28;19928;-73
2023/12/11 10:32:11;;;;;;;;;;;;;;;9.27;100.00;100042.34;5019857;28;19929;-72
2023/12/11 10:34:42;;;;;;;;;;;;;;;9.18;100.00;100058.34;5032500;28;19995;-74
2023/12/11 10:37:08;;;;;;;;;;;;;;;9.07;100.00;100060.09;5018754;28;19921;-73
2023/12/11 10:39:33;;;;;;;;;;;;;;;9.12;100.00;100047.19;5023555;28;19921;-72
2023/12/11 10:42:07;;;;;;;;;;;;;;;9.09;100.00;100050.09;5020094;28;20260;-72
2023/12/11 10:44:33;;;;;;;;;;;;;;;9.02;100.00;100048.91;5012760;28;20023;-74
2023/12/11 10:46:58;;;;;;;;;;;;;;;8.96;100.00;100063.69;5011944;28;20358;-72
2023/12/11 10:49:23;;;;;;;;;;;;;;;8.98;100.00;100061.72;5015827;28;20290;-73
2023/12/11 10:51:49;;;;;;;;;;;;;;;8.86;100.00;100062.75;5011067;28;20517;-72
2023/12/11 10:54:14;;;;;;;;;;;;;;;9.03;100.00;100084.59;5026806;28;20492;-72
2023/12/11 10:56:41;;;;;;;;;;;;;;;9.04;100.00;100080.94;5026744;28;19948;-74
2023/12/11 10:59:06;;;;;;;;;;;;;;;9.12;100.00;100095.38;5028488;28;19921;-73
2023/12/11 11:01:31;;;;;;;;;;;;;;;9.11;100.00;100096.34;5006247;28;19975;-73
2023/12/11 11:03:56;;;;;;;;;;;;;;;9.17;100.00;100100.34;5027831;28;20455;-73
2023/12/11 11:06:22;;;;;;;;;;;;;;;9.21;100.00;100104.47;5008462;28;20434;-73
2023/12/11 11:09:00;;;;;;;;;;;;;;;9.18;100.00;100101.22;4993357;28;19921;-74
2023/12/11 11:11:27;;;;;;;;;;;;;;;9.14;100.00;100105.94;5023817;28;20007;-73
2023/12/11 11:14:11;;;;;;;;;;;;;;;9.14;100.00;100124.69;5014274;28;20288;-73
2023/12/11 11:16:53;;;;;;;;;;;;;;;9.68;100.00;100127.34;5010326;28;19959;-73
2023/12/11 11:19:18;;;;;;;;;;;;;;;9.92;100.00;100124.41;5011586;28;19932;-73
2023/12/11 11:21:59;;;;;;;;;;;;;;;9.63;100.00;100110.84;5011624;28;20253;-73
2023/12/11 11:24:26;;;;;;;;;;;;;;;9.58;100.00;100132.66;5008704;28;20416;-75
2023/12/11 11:26:51;;;;;;;;;;;;;;;9.79;100.00;100131.81;4993236;28;20040;-72
2023/12/11 11:29:36;;;;;;;;;;;;;;;10.52;100.00;100139.81;5025706;28;19962;-73
2023/12/11 11:32:01;;;;;;;;;;;;;;;11.31;100.00;100148.81;5013043;28;20678;-72
2023/12/11 11:34:42;;;;;;;;;;;;;;;11.35;100.00;100152.09;5014047;28;19918;-72
2023/12/11 11:37:07;;;;;;;;;;;;;;;11.86;100.00;100144.66;5011011;28;20439;-72
2023/12/11 11:39:51;;;;;;;;;;;;;;;12.94;100.00;100148.75;5026027;28;19928;-73
2023/12/11 11:42:17;;;;;;;;;;;;;;;12.67;100.00;100137.03;5011956;28;19925;-72
2023/12/11 11:44:42;;;;;;;;;;;;;;;11.50;100.00;100134.53;5027824;28;19909;-72
2023/12/11 11:47:08;;;;;;;;;;;;;;;11.29;100.00;100155.34;5006102;28;19935;-73
2023/12/11 11:49:36;;;;;;;;;;;;;;;11.70;100.00;100142.56;5013624;28;20224;-73
2023/12/11 11:52:05;;;;;;;;;;;;;;;12.10;100.00;100151.44;5010284;28;19932;-72
2023/12/11 11:54:31;;;;;;;;;;;;;;;11.89;100.00;100165.06;5011253;28;19928;-72
2023/12/11 11:56:56;;;;;;;;;;;;;;;11.55;100.00;100167.22;5012161;28;19921;-72
2023/12/11 11:59:21;;;;;;;;;;;;;;;11.21;100.00;100169.50;5012539;28;20012;-72
2023/12/11 12:01:47;;;;;;;;;;;;;;;11.17;100.00;100170.75;5012265;28;19960;-72
2023/12/11 12:04:23;;;;;;;;;;;;;;;11.18;100.00;100177.81;4996954;28;20024;-72
2023/12/11 12:06:48;;;;;;;;;;;;;;;10.79;100.00;100174.06;5014392;28;19925;-72
2023/12/11 12:09:17;;;;;;;;;;;;;;;11.54;100.00;100176.28;5018725;28;19921;-72
2023/12/11 12:11:42;;;;;;;;;;;;;;;13.22;100.00;100172.97;5015519;28;19917;-72
2023/12/11 12:14:11;;;;;;;;;;;;;;;13.75;100.00;100190.19;5020058;28;19940;-72
2023/12/11 12:16:37;;;;;;;;;;;;;;;14.58;100.00;100187.97;5015982;28;19917;-72
2023/12/11 12:19:02;;;;;;;;;;;;;;;13.07;100.00;100195.06;4997934;28;19959;-72
2023/12/11 12:21:28;;;;;;;;;;;;;;;12.54;100.00;100200.16;5017785;28;19925;-72
2023/12/11 12:23:59;;;;;;;;;;;;;;;12.04;100.00;100211.22;5015685;28;20015;-72
2023/12/11 12:26:25;;;;;;;;;;;;;;;10.88;100.00;100219.88;5019833;28;20035;-72
2023/12/11 12:28:50;;;;;;;;;;;;;;;10.75;100.00;100220.97;5018669;28;20043;-72
2023/12/11 12:31:16;;;;;;;;;;;;;;;10.55;100.00;100220.06;5017545;28;19964;-73
2023/12/11 12:33:41;;;;;;;;;;;;;;;10.33;100.00;100213.84;5015384;28;20043;-72
2023/12/11 12:36:06;;;;;;;;;;;;;;;10.07;100.00;100224.16;5015999;28;19917;-72